Time,TemperatureF,DewpointF,PressureIn,WindDirection,WindDirectionDegrees,WindSpeedMPH,WindSpeedGustMPH,Humidity,HourlyPrecipIn,Conditions,Clouds,dailyrainin,SoftwareType,DateUTC
2013-03-22 00:00:00,81.6,70.0,29.92,SSE,158,2.0,2.0,68,0.00,,---,0.00,VWS V13.01,2013-03-22 04:00:00,
2013-03-22 00:01:00,81.6,70.0,29.92,SSW,202,0.0,0.0,68,0.00,,---,0.00,VWS V13.01,2013-03-22 04:01:00,
2013-03-22 00:05:00,81.7,70.1,29.93,SE,135,0.0,1.3,68,0.00,,---,99.99,VWS V13.01,2013-03-22 04:05:00,
2013-03-22 00:06:00,81.6,70.0,29.92,SE,135,0.0,0.0,68,0.00,,---,0.00,VWS V13.01,2013-03-22 04:06:00,
2013-03-22 00:11:00,81.6,70.0,29.92,SE,135,1.7,1.7,68,0.00,,---,0.00,VWS V13.01,2013-03-22 04:11:00,
2013-03-22 00:17:00,81.6,70.0,29.92,SSE,158,0.0,0.0,68,0.00,,---,0.00,VWS V13.01,2013-03-22 04:17:00,
2013-03-22 00:22:00,81.5,69.9,29.91,South,180,0.0,0.0,68,0.00,,---,0.00,VWS V13.01,2013-03-22 04:22:00,
2013-03-22 00:27:00,81.5,69.9,29.92,SSW,202,0.0,0.0,68,0.00,,---,0.00,VWS V13.01,2013-03-22 04:27:00,
2013-03-22 00:32:00,81.3,69.7,29.91,SW,225,0.0,0.0,68,0.00,,---,0.00,VWS V13.01,2013-03-22 04:32:00,
2013-03-22 00:37:00,81.1,69.6,29.92,SSW,202,0.0,0.0,68,0.00,,---,0.00,VWS V13.01,2013-03-22 04:37:00,
2013-03-22 00:42:00,81.1,69.6,29.91,SSE,158,0.0,0.0,68,0.00,,---,0.00,VWS V13.01,2013-03-22 04:42:00,
2013-03-22 00:47:00,81.1,69.6,29.91,SSW,202,0.0,0.0,68,0.00,,---,0.00,VWS V13.01,2013-03-22 04:47:00,
2013-03-22 00:52:00,81.1,69.6,29.91,SW,225,0.0,0.0,68,0.00,,---,0.00,VWS V13.01,2013-03-22 04:52:00,
2013-03-22 00:57:00,81.1,69.6,29.91,SSW,202,0.0,0.0,68,0.00,,---,0.00,VWS V13.01,2013-03-22 04:57:00,
2013-03-22 01:02:00,81.1,69.6,29.91,SW,225,0.0,0.0,68,0.00,,---,0.00,VWS V13.01,2013-03-22 05:02:00,
2013-03-22 01:05:00,81.0,69.8,29.92,SW,225,0.0,0.0,69,0.00,,---,99.99,VWS V13.01,2013-03-22 05:05:00,
2013-03-22 01:07:00,80.7,69.6,29.91,SW,225,0.0,0.0,69,0.00,,---,0.00,VWS V13.01,2013-03-22 05:07:00,
2013-03-22 01:12:00,80.7,69.6,29.90,SSW,202,0.0,0.0,69,0.00,,---,0.00,VWS V13.01,2013-03-22 05:12:00,
2013-03-22 01:17:00,80.6,69.5,29.91,SW,225,0.0,0.0,69,0.00,,---,0.00,VWS V13.01,2013-03-22 05:17:00,
2013-03-22 01:22:00,80.4,69.7,29.90,WSW,248,0.0,0.0,70,0.00,,---,0.00,VWS V13.01,2013-03-22 05:22:00,
2013-03-22 01:27:00,80.4,69.7,29.90,SSW,202,0.0,0.0,70,0.00,,---,0.00,VWS V13.01,2013-03-22 05:27:00,
2013-03-22 01:32:00,80.4,69.7,29.90,SSE,158,0.0,0.0,70,0.00,,---,0.00,VWS V13.01,2013-03-22 05:32:00,
2013-03-22 01:37:00,80.4,69.7,29.91,SW,225,0.0,0.0,70,0.00,,---,0.00,VWS V13.01,2013-03-22 05:37:00,
2013-03-22 01:42:00,80.4,69.7,29.90,SSW,202,0.0,0.0,70,0.00,,---,0.00,VWS V13.01,2013-03-22 05:42:00,
2013-03-22 01:47:00,80.4,70.1,29.90,NW,315,0.0,0.0,71,0.00,,---,0.00,VWS V13.01,2013-03-22 05:47:00,
2013-03-22 01:52:00,80.4,70.1,29.90,SSW,202,0.0,0.0,71,0.00,,---,0.00,VWS V13.01,2013-03-22 05:52:00,
2013-03-22 01:57:00,80.2,69.9,29.90,WSW,248,2.2,2.2,71,0.00,,---,0.00,VWS V13.01,2013-03-22 05:57:00,
2013-03-22 02:02:00,80.2,70.4,29.90,SSW,202,0.0,0.0,72,0.00,,---,0.00,VWS V13.01,2013-03-22 06:02:00,
2013-03-22 02:05:00,80.1,70.2,29.91,SSE,158,0.0,0.0,72,0.00,,---,99.99,VWS V13.01,2013-03-22 06:05:00,
2013-03-22 02:07:00,80.0,70.2,29.89,SW,225,0.0,0.0,72,0.00,,---,0.00,VWS V13.01,2013-03-22 06:07:00,
2013-03-22 02:12:00,80.0,70.2,29.90,SW,225,3.5,3.5,72,0.00,,---,0.00,VWS V13.01,2013-03-22 06:12:00,
2013-03-22 02:17:00,79.8,70.0,29.89,SSE,158,0.0,0.0,72,0.00,,---,0.00,VWS V13.01,2013-03-22 06:17:00,
2013-03-22 02:22:00,79.8,70.0,29.89,South,180,0.0,0.0,72,0.00,,---,0.00,VWS V13.01,2013-03-22 06:22:00,
2013-03-22 02:27:00,79.8,70.0,29.89,SW,225,0.0,0.0,72,0.00,,---,0.00,VWS V13.01,2013-03-22 06:27:00,
2013-03-22 02:32:00,79.8,70.0,29.89,SSE,158,0.0,0.0,72,0.00,,---,0.00,VWS V13.01,2013-03-22 06:32:00,
2013-03-22 02:37:00,79.7,69.9,29.89,SW,225,0.0,0.0,72,0.00,,---,0.00,VWS V13.01,2013-03-22 06:37:00,
2013-03-22 02:42:00,79.5,70.1,29.89,South,180,0.0,0.0,73,0.00,,---,0.00,VWS V13.01,2013-03-22 06:42:00,
2013-03-22 02:47:00,79.5,70.1,29.89,SE,135,0.0,0.0,73,0.00,,---,0.00,VWS V13.01,2013-03-22 06:47:00,
2013-03-22 02:52:00,79.5,70.1,29.89,South,180,0.0,0.0,73,0.00,,---,0.00,VWS V13.01,2013-03-22 06:52:00,
2013-03-22 02:57:00,79.5,70.1,29.89,SSW,202,3.1,3.1,73,0.00,,---,0.00,VWS V13.01,2013-03-22 06:57:00,
2013-03-22 03:02:00,79.5,70.1,29.89,South,180,0.0,0.0,73,0.00,,---,0.00,VWS V13.01,2013-03-22 07:02:00,
2013-03-22 03:05:00,79.5,70.1,29.90,South,180,1.6,1.6,73,0.00,,---,99.99,VWS V13.01,2013-03-22 07:05:00,
2013-03-22 03:07:00,79.5,70.1,29.89,SSW,202,0.0,0.0,73,0.00,,---,0.00,VWS V13.01,2013-03-22 07:07:00,
2013-03-22 03:12:00,79.5,70.1,29.88,South,180,0.0,0.0,73,0.00,,---,0.00,VWS V13.01,2013-03-22 07:12:00,
2013-03-22 03:20:00,79.5,70.5,29.89,South,180,0.0,1.6,74,0.00,,---,0.08,VWS V13.01,2013-03-22 07:20:00,
2013-03-22 03:25:00,79.5,70.5,29.89,South,180,0.0,0.0,74,0.00,,---,0.08,VWS V13.01,2013-03-22 07:25:00,
2013-03-22 03:30:00,79.5,70.5,29.89,SSW,202,0.6,0.6,74,0.00,,---,0.08,VWS V13.01,2013-03-22 07:30:00,
2013-03-22 03:35:00,79.5,70.5,29.89,SSE,158,0.0,0.0,74,0.00,,---,0.08,VWS V13.01,2013-03-22 07:35:00,
2013-03-22 03:40:00,79.3,70.3,29.89,SSW,202,0.0,0.0,74,0.00,,---,0.08,VWS V13.01,2013-03-22 07:40:00,
2013-03-22 03:45:00,79.3,70.3,29.89,South,180,0.0,0.0,74,0.00,,---,0.08,VWS V13.01,2013-03-22 07:45:00,
2013-03-22 03:50:00,79.3,70.3,29.89,South,180,2.2,2.2,74,0.00,,---,0.08,VWS V13.01,2013-03-22 07:50:00,
2013-03-22 03:55:00,79.3,70.7,29.89,SE,135,0.0,0.0,75,0.00,,---,0.08,VWS V13.01,2013-03-22 07:55:00,
2013-03-22 04:00:00,79.3,70.7,29.89,South,180,2.4,2.4,75,0.00,,---,0.08,VWS V13.01,2013-03-22 08:00:00,
2013-03-22 04:05:00,79.3,70.7,29.89,South,180,0.0,0.0,75,0.00,,---,0.08,VWS V13.01,2013-03-22 08:05:00,
2013-03-22 04:10:00,79.3,70.7,29.89,SSE,158,2.0,2.0,75,0.00,,---,0.08,VWS V13.01,2013-03-22 08:10:00,
2013-03-22 04:15:00,79.1,70.5,29.89,SE,135,0.0,0.0,75,0.00,,---,0.08,VWS V13.01,2013-03-22 08:15:00,
2013-03-22 04:20:00,79.1,70.5,29.89,SE,135,2.0,2.0,75,0.00,,---,0.08,VWS V13.01,2013-03-22 08:20:00,
2013-03-22 04:25:00,79.1,70.5,29.89,SSE,158,1.5,1.5,75,0.00,,---,0.08,VWS V13.01,2013-03-22 08:25:00,
2013-03-22 04:30:00,78.9,70.3,29.89,North,0,0.0,0.0,75,0.00,,---,0.08,VWS V13.01,2013-03-22 08:30:00,
2013-03-22 04:35:00,78.9,70.3,29.89,SE,135,1.5,1.5,75,0.00,,---,0.08,VWS V13.01,2013-03-22 08:35:00,
2013-03-22 04:40:00,78.8,70.2,29.89,SSE,158,0.0,0.0,75,0.00,,---,0.08,VWS V13.01,2013-03-22 08:40:00,
2013-03-22 04:45:00,78.8,70.2,29.89,SSE,158,1.7,1.7,75,0.00,,---,0.08,VWS V13.01,2013-03-22 08:45:00,
2013-03-22 04:50:00,78.6,70.0,29.89,ESE,112,0.0,0.0,75,0.00,,---,0.08,VWS V13.01,2013-03-22 08:50:00,
2013-03-22 04:55:00,78.6,70.0,29.90,South,180,0.0,0.0,75,0.00,,---,0.08,VWS V13.01,2013-03-22 08:55:00,
2013-03-22 05:00:00,78.8,70.2,29.90,SSE,158,1.3,1.3,75,0.00,,---,0.08,VWS V13.01,2013-03-22 09:00:00,
2013-03-22 05:05:00,78.8,70.2,29.90,SE,135,2.6,2.6,75,0.00,,---,0.08,VWS V13.01,2013-03-22 09:05:00,
2013-03-22 05:10:00,78.6,70.0,29.90,SE,135,0.0,0.0,75,0.00,,---,0.08,VWS V13.01,2013-03-22 09:10:00,
2013-03-22 05:15:00,78.6,70.0,29.90,SE,135,2.9,2.9,75,0.00,,---,0.08,VWS V13.01,2013-03-22 09:15:00,
2013-03-22 05:20:00,78.6,70.0,29.90,SSW,202,0.0,0.0,75,0.00,,---,0.08,VWS V13.01,2013-03-22 09:20:00,
2013-03-22 05:25:00,78.6,70.0,29.91,South,180,0.0,0.0,75,0.00,,---,0.08,VWS V13.01,2013-03-22 09:25:00,
2013-03-22 05:30:00,78.6,70.0,29.91,SE,135,2.2,2.2,75,0.00,,---,0.08,VWS V13.01,2013-03-22 09:30:00,
2013-03-22 05:35:00,78.8,70.2,29.91,SSE,158,0.0,0.0,75,0.00,,---,0.08,VWS V13.01,2013-03-22 09:35:00,
2013-03-22 05:40:00,78.8,70.2,29.91,South,180,0.0,0.0,75,0.00,,---,0.08,VWS V13.01,2013-03-22 09:40:00,
2013-03-22 05:45:00,78.8,70.2,29.91,South,180,0.0,0.0,75,0.00,,---,0.08,VWS V13.01,2013-03-22 09:45:00,
2013-03-22 05:50:00,78.8,70.2,29.92,SE,135,0.6,0.6,75,0.00,,---,0.08,VWS V13.01,2013-03-22 09:50:00,
2013-03-22 05:55:00,78.8,70.2,29.92,SE,135,0.0,0.0,75,0.00,,---,0.08,VWS V13.01,2013-03-22 09:55:00,
2013-03-22 06:00:00,78.9,70.3,29.92,South,180,0.0,0.0,75,0.00,,---,0.08,VWS V13.01,2013-03-22 10:00:00,
2013-03-22 06:05:00,78.9,70.3,29.92,SE,135,0.0,0.0,75,0.00,,---,0.08,VWS V13.01,2013-03-22 10:05:00,
2013-03-22 06:10:00,78.9,70.3,29.92,SE,135,0.0,0.0,75,0.00,,---,0.08,VWS V13.01,2013-03-22 10:10:00,
2013-03-22 06:15:00,78.8,70.2,29.93,SSE,158,0.0,0.0,75,0.00,,---,0.08,VWS V13.01,2013-03-22 10:15:00,
2013-03-22 06:20:00,78.9,70.3,29.92,SE,135,0.0,0.0,75,0.00,,---,0.08,VWS V13.01,2013-03-22 10:20:00,
2013-03-22 06:25:00,78.9,70.3,29.93,South,180,0.0,0.0,75,0.00,,---,0.08,VWS V13.01,2013-03-22 10:25:00,
2013-03-22 06:30:00,78.9,70.3,29.93,South,180,0.0,0.0,75,0.00,,---,0.08,VWS V13.01,2013-03-22 10:30:00,
2013-03-22 06:35:00,78.9,70.3,29.93,SSE,158,2.2,2.2,75,0.00,,---,0.08,VWS V13.01,2013-03-22 10:35:00,
2013-03-22 06:40:00,78.9,70.3,29.94,SSE,158,2.4,2.4,75,0.00,,---,0.08,VWS V13.01,2013-03-22 10:40:00,
2013-03-22 06:45:00,78.9,70.3,29.93,SSE,158,0.0,0.0,75,0.00,,---,0.08,VWS V13.01,2013-03-22 10:45:00,
2013-03-22 06:50:00,79.1,70.5,29.93,ESE,112,4.0,4.0,75,0.00,,---,0.08,VWS V13.01,2013-03-22 10:50:00,
2013-03-22 06:55:00,79.1,70.5,29.94,SSE,158,0.8,0.8,75,0.00,,---,0.08,VWS V13.01,2013-03-22 10:55:00,
2013-03-22 06:59:00,79.3,70.7,29.94,SE,135,0.0,0.0,75,0.00,,---,0.08,VWS V13.01,2013-03-22 10:59:00,
2013-03-22 07:04:00,79.3,70.7,29.94,South,180,0.0,0.0,75,0.00,,---,0.08,VWS V13.01,2013-03-22 11:04:00,
2013-03-22 07:09:00,79.5,70.9,29.94,South,180,0.0,0.0,75,0.00,,---,0.08,VWS V13.01,2013-03-22 11:09:00,
2013-03-22 07:14:00,79.7,70.7,29.94,SSE,158,0.8,0.8,74,0.00,,---,0.08,VWS V13.01,2013-03-22 11:14:00,
2013-03-22 07:19:00,79.8,70.8,29.95,SE,135,2.2,2.2,74,0.00,,---,0.08,VWS V13.01,2013-03-22 11:19:00,
2013-03-22 07:24:00,80.0,70.6,29.95,SE,135,2.6,2.6,73,0.00,,---,0.08,VWS V13.01,2013-03-22 11:24:00,
2013-03-22 07:29:00,80.2,70.8,29.95,SSE,158,0.8,0.8,73,0.00,,---,0.08,VWS V13.01,2013-03-22 11:29:00,
2013-03-22 07:34:00,80.2,70.8,29.95,SE,135,2.2,2.2,73,0.00,,---,0.08,VWS V13.01,2013-03-22 11:34:00,
2013-03-22 07:39:00,80.2,70.8,29.95,SSE,158,1.5,1.5,73,0.00,,---,0.08,VWS V13.01,2013-03-22 11:39:00,
2013-03-22 07:44:00,80.2,70.8,29.96,South,180,1.5,1.5,73,0.00,,---,0.08,VWS V13.01,2013-03-22 11:44:00,
2013-03-22 07:49:00,80.2,70.8,29.96,South,180,3.3,3.3,73,0.00,,---,0.08,VWS V13.01,2013-03-22 11:49:00,
2013-03-22 07:54:00,80.4,71.0,29.96,SSE,158,1.1,1.1,73,0.00,,---,0.08,VWS V13.01,2013-03-22 11:54:00,
2013-03-22 07:59:00,80.4,71.0,29.96,South,180,2.4,2.4,73,0.00,,---,0.08,VWS V13.01,2013-03-22 11:59:00,
2013-03-22 08:04:00,80.7,71.2,29.97,SSE,158,0.0,0.0,73,0.00,,---,0.08,VWS V13.01,2013-03-22 12:04:00,
2013-03-22 08:09:00,81.1,71.6,29.97,SE,135,1.5,1.5,73,0.00,,---,0.08,VWS V13.01,2013-03-22 12:09:00,
2013-03-22 08:14:00,81.3,71.4,29.97,SE,135,2.0,2.0,72,0.00,,---,0.08,VWS V13.01,2013-03-22 12:14:00,
2013-03-22 08:19:00,81.5,71.2,29.97,SSE,158,0.6,0.6,71,0.00,,---,0.08,VWS V13.01,2013-03-22 12:19:00,
2013-03-22 08:24:00,81.6,71.3,29.98,SE,135,0.6,0.6,71,0.00,,---,0.08,VWS V13.01,2013-03-22 12:24:00,
2013-03-22 08:29:00,81.6,71.3,29.98,SSE,158,1.3,1.3,71,0.00,,---,0.08,VWS V13.01,2013-03-22 12:29:00,
2013-03-22 08:34:00,82.0,71.3,29.98,SE,135,2.0,2.0,70,0.00,,---,0.08,VWS V13.01,2013-03-22 12:34:00,
2013-03-22 08:39:00,82.0,71.3,29.98,East,90,0.8,0.8,70,0.00,,---,0.08,VWS V13.01,2013-03-22 12:39:00,
2013-03-22 08:44:00,82.2,71.4,29.98,South,180,0.0,0.0,70,0.00,,---,0.08,VWS V13.01,2013-03-22 12:44:00,
2013-03-22 08:49:00,82.2,71.4,29.98,South,180,0.0,0.0,70,0.00,,---,0.08,VWS V13.01,2013-03-22 12:49:00,
2013-03-22 08:54:00,82.5,71.7,29.98,SE,135,3.1,3.1,70,0.00,,---,0.08,VWS V13.01,2013-03-22 12:54:00,
2013-03-22 08:59:00,82.7,71.5,29.98,ENE,68,2.0,2.0,69,0.00,,---,0.08,VWS V13.01,2013-03-22 12:59:00,
2013-03-22 09:04:00,83.1,71.9,29.98,SSE,158,3.8,3.8,69,0.00,,---,0.08,VWS V13.01,2013-03-22 13:04:00,
2013-03-22 09:09:00,83.3,71.6,29.98,SSE,158,2.0,5.3,68,0.00,,---,0.08,VWS V13.01,2013-03-22 13:09:00,
2013-03-22 09:14:00,83.4,71.7,29.98,SE,135,3.8,3.8,68,0.00,,---,0.08,VWS V13.01,2013-03-22 13:14:00,
2013-03-22 09:19:00,83.8,72.1,29.98,SE,135,2.4,2.4,68,0.00,,---,0.08,VWS V13.01,2013-03-22 13:19:00,
2013-03-22 09:24:00,84.0,71.9,29.98,SE,135,2.4,2.4,67,0.00,,---,0.08,VWS V13.01,2013-03-22 13:24:00,
2013-03-22 09:29:00,84.0,71.9,29.98,SE,135,3.8,3.8,67,0.00,,---,0.08,VWS V13.01,2013-03-22 13:29:00,
2013-03-22 09:34:00,84.3,71.7,29.98,NE,45,3.5,4.0,66,0.00,,---,0.08,VWS V13.01,2013-03-22 13:34:00,
2013-03-22 09:39:00,84.3,72.2,29.97,ENE,68,1.3,1.3,67,0.00,,---,0.08,VWS V13.01,2013-03-22 13:39:00,
2013-03-22 09:44:00,84.5,72.8,29.98,ENE,68,4.6,4.6,68,0.00,,---,0.08,VWS V13.01,2013-03-22 13:44:00,
2013-03-22 09:49:00,84.5,73.7,29.98,ESE,112,8.7,8.7,70,0.00,,---,0.08,VWS V13.01,2013-03-22 13:49:00,
2013-03-22 09:54:00,84.7,74.3,29.99,NE,45,5.3,5.3,71,0.00,,---,0.08,VWS V13.01,2013-03-22 13:54:00,
2013-03-22 09:59:00,84.7,74.3,29.98,NE,45,5.8,5.8,71,0.00,,---,0.08,VWS V13.01,2013-03-22 13:59:00,
2013-03-22 10:04:00,84.7,74.3,29.99,East,90,0.0,0.0,71,0.00,,---,0.08,VWS V13.01,2013-03-22 14:04:00,
2013-03-22 10:09:00,84.9,74.9,29.98,NE,45,5.8,5.8,72,0.00,,---,0.08,VWS V13.01,2013-03-22 14:09:00,
2013-03-22 10:14:00,84.7,74.3,29.98,ENE,68,4.4,4.4,71,0.00,,---,0.08,VWS V13.01,2013-03-22 14:14:00,
2013-03-22 10:19:00,84.7,74.7,29.98,ENE,68,1.1,1.1,72,0.00,,---,0.08,VWS V13.01,2013-03-22 14:19:00,
2013-03-22 10:24:00,85.1,75.1,29.98,ENE,68,5.3,5.3,72,0.00,,---,0.08,VWS V13.01,2013-03-22 14:24:00,
2013-03-22 10:29:00,85.2,74.7,29.98,East,90,0.0,0.0,71,0.00,,---,0.08,VWS V13.01,2013-03-22 14:29:00,
2013-03-22 10:34:00,85.6,73.8,29.99,SSE,158,7.8,7.8,68,0.00,,---,0.08,VWS V13.01,2013-03-22 14:34:00,
2013-03-22 10:39:00,86.1,72.0,29.99,SE,135,8.2,8.2,63,0.00,,---,0.08,VWS V13.01,2013-03-22 14:39:00,
2013-03-22 10:44:00,86.5,71.9,29.98,SSE,158,2.0,2.0,62,0.00,,---,0.08,VWS V13.01,2013-03-22 14:44:00,
2013-03-22 10:49:00,86.9,71.3,29.98,SE,135,3.3,3.3,60,0.00,,---,0.08,VWS V13.01,2013-03-22 14:49:00,
2013-03-22 10:54:00,87.0,70.9,29.98,SSE,158,7.3,7.3,59,0.00,,---,0.08,VWS V13.01,2013-03-22 14:54:00,
2013-03-22 11:07:00,88.1,72.5,29.98,South,180,2.9,2.9,60,0.00,,---,0.08,VWS V13.01,2013-03-22 15:07:00,
2013-03-22 11:12:00,88.5,53.1,29.98,SE,135,7.1,7.1,30,0.00,,---,0.08,VWS V13.01,2013-03-22 15:12:00,
2013-03-22 11:17:00,88.8,72.1,29.98,SE,135,6.7,6.7,58,0.00,,---,0.08,VWS V13.01,2013-03-22 15:17:00,
2013-03-22 11:22:00,88.8,74.6,29.98,ENE,68,10.2,10.2,63,0.00,,---,0.08,VWS V13.01,2013-03-22 15:22:00,
2013-03-22 11:27:00,88.3,75.1,29.98,NNE,22,5.3,5.5,65,0.00,,---,0.08,VWS V13.01,2013-03-22 15:27:00,
2013-03-22 11:32:00,87.6,74.8,29.98,WSW,248,0.0,1.3,66,0.00,,---,0.08,VWS V13.01,2013-03-22 15:32:00,
2013-03-22 11:37:00,87.6,75.3,29.98,ENE,68,8.9,8.9,67,0.00,,---,0.08,VWS V13.01,2013-03-22 15:37:00,
2013-03-22 11:42:00,87.4,75.1,29.98,East,90,4.6,4.6,67,0.00,,---,0.08,VWS V13.01,2013-03-22 15:42:00,
2013-03-22 11:47:00,87.0,74.7,29.97,ENE,68,12.7,12.7,67,0.00,,---,0.08,VWS V13.01,2013-03-22 15:47:00,
2013-03-22 11:52:00,87.0,75.2,29.96,ENE,68,17.2,17.2,68,0.00,,---,0.08,VWS V13.01,2013-03-22 15:52:00,
2013-03-22 11:57:00,87.0,75.2,29.97,NE,45,8.7,8.7,68,0.00,,---,0.08,VWS V13.01,2013-03-22 15:57:00,
2013-03-22 12:02:00,86.9,75.1,29.96,NE,45,4.9,4.9,68,0.00,,---,0.08,VWS V13.01,2013-03-22 16:02:00,
2013-03-22 12:07:00,87.0,75.2,29.96,ENE,68,6.4,6.4,68,0.00,,---,0.08,VWS V13.01,2013-03-22 16:07:00,
2013-03-22 12:12:00,86.7,75.3,29.96,East,90,10.9,10.9,69,0.00,,---,0.08,VWS V13.01,2013-03-22 16:12:00,
2013-03-22 12:17:00,86.3,74.9,29.96,East,90,5.3,5.3,69,0.00,,---,0.08,VWS V13.01,2013-03-22 16:17:00,
2013-03-22 12:22:00,86.7,75.3,29.96,ESE,112,7.8,7.8,69,0.00,,---,0.08,VWS V13.01,2013-03-22 16:22:00,
2013-03-22 12:27:00,86.7,75.3,29.95,ENE,68,12.3,12.3,69,0.00,,---,0.08,VWS V13.01,2013-03-22 16:27:00,
2013-03-22 12:32:00,86.7,75.3,29.95,East,90,7.6,7.6,69,0.00,,---,0.08,VWS V13.01,2013-03-22 16:32:00,
2013-03-22 12:37:00,86.7,75.3,29.95,ENE,68,9.8,9.8,69,0.00,,---,0.08,VWS V13.01,2013-03-22 16:37:00,
2013-03-22 12:42:00,86.7,74.9,29.95,ENE,68,13.4,13.4,68,0.00,,---,0.08,VWS V13.01,2013-03-22 16:42:00,
2013-03-22 12:47:00,86.7,75.3,29.94,East,90,9.1,9.1,69,0.00,,---,0.08,VWS V13.01,2013-03-22 16:47:00,
2013-03-22 12:52:00,87.2,75.8,29.94,East,90,10.5,10.5,69,0.00,,---,0.08,VWS V13.01,2013-03-22 16:52:00,
2013-03-22 12:57:00,87.4,75.6,29.93,ENE,68,14.5,14.5,68,0.00,,---,0.08,VWS V13.01,2013-03-22 16:57:00,
2013-03-22 13:02:00,87.6,75.7,29.93,ESE,112,6.0,9.3,68,0.00,,---,0.08,VWS V13.01,2013-03-22 17:02:00,
2013-03-22 13:07:00,87.6,75.7,29.93,NE,45,8.0,8.0,68,0.00,,---,0.08,VWS V13.01,2013-03-22 17:07:00,
2013-03-22 13:12:00,87.9,76.0,29.94,East,90,10.9,10.9,68,0.00,,---,0.08,VWS V13.01,2013-03-22 17:12:00,
2013-03-22 13:17:00,88.3,76.0,29.93,ENE,68,6.0,6.0,67,0.00,,---,0.08,VWS V13.01,2013-03-22 17:17:00,
2013-03-22 13:22:00,88.3,75.5,29.93,ESE,112,9.3,9.3,66,0.00,,---,0.08,VWS V13.01,2013-03-22 17:22:00,
2013-03-22 13:27:00,88.3,76.0,29.92,ENE,68,13.1,13.1,67,0.00,,---,0.08,VWS V13.01,2013-03-22 17:27:00,
2013-03-22 13:32:00,88.7,76.3,29.92,East,90,10.0,10.0,67,0.00,,---,0.08,VWS V13.01,2013-03-22 17:32:00,
2013-03-22 13:37:00,88.8,76.0,29.92,ENE,68,12.9,12.9,66,0.00,,---,0.08,VWS V13.01,2013-03-22 17:37:00,
2013-03-22 13:42:00,89.0,76.2,29.92,NNE,22,8.2,8.2,66,0.00,,---,0.08,VWS V13.01,2013-03-22 17:42:00,
2013-03-22 13:47:00,88.5,76.2,29.91,East,90,10.0,10.0,67,0.00,,---,0.08,VWS V13.01,2013-03-22 17:47:00,
2013-03-22 13:53:00,88.3,75.5,29.92,ENE,68,8.0,8.0,66,0.00,,---,0.08,VWS V13.01,2013-03-22 17:53:00,
2013-03-22 13:58:00,88.1,75.8,29.91,East,90,10.0,10.0,67,0.00,,---,0.08,VWS V13.01,2013-03-22 17:58:00,
2013-03-22 14:03:00,87.6,75.3,29.91,ENE,68,9.3,9.3,67,0.00,,---,0.08,VWS V13.01,2013-03-22 18:03:00,
2013-03-22 14:08:00,87.9,75.6,29.91,ESE,112,4.9,4.9,67,0.00,,---,0.08,VWS V13.01,2013-03-22 18:08:00,
2013-03-22 14:13:00,88.3,76.0,29.91,ENE,68,10.9,10.9,67,0.00,,---,0.08,VWS V13.01,2013-03-22 18:13:00,
2013-03-22 14:18:00,87.9,75.6,29.91,ENE,68,10.5,10.5,67,0.00,,---,0.08,VWS V13.01,2013-03-22 18:18:00,
2013-03-22 14:23:00,87.9,75.6,29.90,ENE,68,11.1,11.1,67,0.00,,---,0.08,VWS V13.01,2013-03-22 18:23:00,
2013-03-22 14:28:00,87.9,75.6,29.91,East,90,5.1,5.1,67,0.00,,---,0.08,VWS V13.01,2013-03-22 18:28:00,
2013-03-22 14:33:00,88.5,76.2,29.90,East,90,13.8,13.8,67,0.00,,---,0.08,VWS V13.01,2013-03-22 18:33:00,
2013-03-22 14:38:00,88.7,76.3,29.91,ENE,68,6.2,6.2,67,0.00,,---,0.08,VWS V13.01,2013-03-22 18:38:00,
2013-03-22 14:43:00,88.3,76.0,29.90,ENE,68,6.7,6.7,67,0.00,,---,0.08,VWS V13.01,2013-03-22 18:43:00,
2013-03-22 14:48:00,87.9,76.0,29.90,ENE,68,6.4,6.4,68,0.00,,---,0.08,VWS V13.01,2013-03-22 18:48:00,
2013-03-22 14:53:00,88.3,76.0,29.90,ESE,112,3.8,3.8,67,0.00,,---,0.08,VWS V13.01,2013-03-22 18:53:00,
2013-03-22 14:58:00,89.2,76.4,29.90,ENE,68,4.6,4.6,66,0.00,,---,0.08,VWS V13.01,2013-03-22 18:58:00,
2013-03-22 15:03:00,89.4,76.1,29.90,NE,45,8.7,8.7,65,0.00,,---,0.08,VWS V13.01,2013-03-22 19:03:00,
2013-03-22 15:08:00,88.8,76.0,29.90,East,90,5.5,5.5,66,0.00,,---,0.08,VWS V13.01,2013-03-22 19:08:00,
2013-03-22 15:13:00,89.4,76.6,29.90,East,90,10.2,10.2,66,0.00,,---,0.08,VWS V13.01,2013-03-22 19:13:00,
2013-03-22 15:18:00,89.6,76.7,29.89,East,90,4.9,4.9,66,0.00,,---,0.08,VWS V13.01,2013-03-22 19:18:00,
2013-03-22 15:23:00,89.9,76.1,29.90,East,90,17.0,17.0,64,0.00,,---,0.08,VWS V13.01,2013-03-22 19:23:00,
2013-03-22 15:28:00,89.9,76.6,29.89,ENE,68,11.4,11.4,65,0.00,,---,0.08,VWS V13.01,2013-03-22 19:28:00,
2013-03-22 15:33:00,90.1,76.3,29.90,WSW,248,0.0,0.0,64,0.00,,---,0.08,VWS V13.01,2013-03-22 19:33:00,
2013-03-22 15:38:00,90.6,76.3,29.89,ENE,68,2.6,2.6,63,0.00,,---,0.08,VWS V13.01,2013-03-22 19:38:00,
2013-03-22 15:43:00,91.2,76.8,29.89,ENE,68,19.0,19.0,63,0.00,,---,0.08,VWS V13.01,2013-03-22 19:43:00,
2013-03-22 15:48:00,91.5,76.7,29.89,ESE,112,0.8,0.8,62,0.00,,---,0.08,VWS V13.01,2013-03-22 19:48:00,
2013-03-22 15:53:00,91.7,76.3,29.89,ESE,112,1.3,1.3,61,0.00,,---,0.08,VWS V13.01,2013-03-22 19:53:00,
2013-03-22 15:58:00,91.9,76.5,29.89,SE,135,4.9,4.9,61,0.00,,---,0.08,VWS V13.01,2013-03-22 19:58:00,
2013-03-22 16:03:00,92.3,76.4,29.89,East,90,8.9,8.9,60,0.00,,---,0.08,VWS V13.01,2013-03-22 20:03:00,
2013-03-22 16:08:00,92.3,76.4,29.90,NE,45,8.7,8.7,60,0.00,,---,0.08,VWS V13.01,2013-03-22 20:08:00,
2013-03-22 16:13:00,91.4,76.1,29.90,NE,45,7.3,7.3,61,0.00,,---,0.08,VWS V13.01,2013-03-22 20:13:00,
2013-03-22 16:18:00,90.3,76.0,29.90,ESE,112,12.3,12.3,63,0.00,,---,0.08,VWS V13.01,2013-03-22 20:18:00,
2013-03-22 16:23:00,89.7,75.9,29.89,South,180,4.6,4.6,64,0.00,,---,0.08,VWS V13.01,2013-03-22 20:23:00,
2013-03-22 16:28:00,89.2,75.4,29.90,ENE,68,6.2,6.2,64,0.00,,---,0.08,VWS V13.01,2013-03-22 20:28:00,
2013-03-22 16:33:00,88.7,75.4,29.90,ESE,112,1.1,1.1,65,0.00,,---,0.08,VWS V13.01,2013-03-22 20:33:00,
2013-03-22 16:38:00,88.3,75.1,29.90,East,90,4.0,4.0,65,0.00,,---,0.08,VWS V13.01,2013-03-22 20:38:00,
2013-03-22 16:43:00,88.3,75.5,29.91,ENE,68,3.8,3.8,66,0.00,,---,0.08,VWS V13.01,2013-03-22 20:43:00,
2013-03-22 16:48:00,88.1,75.3,29.90,NE,45,7.1,7.1,66,0.00,,---,0.08,VWS V13.01,2013-03-22 20:48:00,
2013-03-22 16:53:00,87.9,75.1,29.90,ENE,68,0.8,0.8,66,0.00,,---,0.08,VWS V13.01,2013-03-22 20:53:00,
2013-03-22 16:58:00,87.9,74.7,29.91,SSE,158,4.2,4.2,65,0.00,,---,0.08,VWS V13.01,2013-03-22 20:58:00,
2013-03-22 17:03:00,88.7,73.0,29.90,SSE,158,1.3,1.3,60,0.00,,---,0.08,VWS V13.01,2013-03-22 21:03:00,
2013-03-22 17:08:00,89.4,72.7,29.91,SE,135,2.2,2.2,58,0.00,,---,0.08,VWS V13.01,2013-03-22 21:08:00,
2013-03-22 17:13:00,89.7,72.4,29.91,SSE,158,8.5,8.5,57,0.00,,---,0.08,VWS V13.01,2013-03-22 21:13:00,
2013-03-22 17:18:00,89.7,72.4,29.91,SSE,158,5.3,5.3,57,0.00,,---,0.08,VWS V13.01,2013-03-22 21:18:00,
2013-03-22 17:23:00,89.4,72.2,29.91,ESE,112,2.2,2.2,57,0.00,,---,0.08,VWS V13.01,2013-03-22 21:23:00,
2013-03-22 17:28:00,89.4,72.7,29.91,South,180,5.1,5.1,58,0.00,,---,0.08,VWS V13.01,2013-03-22 21:28:00,
2013-03-22 17:33:00,89.2,72.5,29.91,SSE,158,7.8,7.8,58,0.00,,---,0.08,VWS V13.01,2013-03-22 21:33:00,
2013-03-22 17:38:00,88.8,72.1,29.91,SE,135,1.7,1.7,58,0.00,,---,0.08,VWS V13.01,2013-03-22 21:38:00,
2013-03-22 17:43:00,88.5,72.3,29.91,SW,225,3.5,3.5,59,0.00,,---,0.08,VWS V13.01,2013-03-22 21:43:00,
2013-03-22 17:48:00,88.1,72.5,29.92,South,180,3.5,3.5,60,0.00,,---,0.08,VWS V13.01,2013-03-22 21:48:00,
2013-03-22 17:53:00,87.8,72.2,29.92,SSE,158,1.5,1.5,60,0.00,,---,0.08,VWS V13.01,2013-03-22 21:53:00,
2013-03-22 17:58:00,87.6,72.0,29.93,South,180,1.3,1.3,60,0.00,,---,0.08,VWS V13.01,2013-03-22 21:58:00,
2013-03-22 18:03:00,87.4,71.8,29.93,SSE,158,0.0,0.0,60,0.00,,---,0.08,VWS V13.01,2013-03-22 22:03:00,
2013-03-22 18:08:00,87.0,70.9,29.93,SSE,158,0.0,0.0,59,0.00,,---,0.08,VWS V13.01,2013-03-22 22:08:00,
2013-03-22 18:13:00,86.9,71.3,29.93,SW,225,6.2,6.2,60,0.00,,---,0.08,VWS V13.01,2013-03-22 22:13:00,
2013-03-22 18:18:00,86.5,71.5,29.94,South,180,6.9,6.9,61,0.00,,---,0.08,VWS V13.01,2013-03-22 22:18:00,
2013-03-22 18:23:00,86.3,71.8,29.94,SSW,202,4.6,4.6,62,0.00,,---,0.08,VWS V13.01,2013-03-22 22:23:00,
2013-03-22 18:28:00,86.1,71.1,29.94,SSW,202,2.4,2.4,61,0.00,,---,0.08,VWS V13.01,2013-03-22 22:28:00,
2013-03-22 18:33:00,85.6,70.6,29.93,South,180,4.0,4.0,61,0.00,,---,0.08,VWS V13.01,2013-03-22 22:33:00,
2013-03-22 18:38:00,85.2,71.7,29.94,SSW,202,0.0,0.0,64,0.00,,---,0.08,VWS V13.01,2013-03-22 22:38:00,
2013-03-22 18:43:00,85.1,72.5,29.94,SE,135,2.4,2.4,66,0.00,,---,0.08,VWS V13.01,2013-03-22 22:43:00,
2013-03-22 18:48:00,84.9,73.2,29.94,South,180,0.0,0.0,68,0.00,,---,0.08,VWS V13.01,2013-03-22 22:48:00,
2013-03-22 18:53:00,84.9,73.6,29.94,WSW,248,1.3,1.3,69,0.00,,---,0.08,VWS V13.01,2013-03-22 22:53:00,
2013-03-22 18:58:00,84.7,73.8,29.94,NNE,22,0.0,0.0,70,0.00,,---,0.08,VWS V13.01,2013-03-22 22:58:00,
2013-03-22 19:03:00,84.5,73.7,29.95,WNW,292,0.0,0.0,70,0.00,,---,0.08,VWS V13.01,2013-03-22 23:03:00,
2013-03-22 19:08:00,84.3,73.9,29.96,SSE,158,0.0,0.0,71,0.00,,---,0.08,VWS V13.01,2013-03-22 23:08:00,
2013-03-22 19:13:00,84.3,73.9,29.96,WSW,248,1.5,1.5,71,0.00,,---,0.08,VWS V13.01,2013-03-22 23:13:00,
2013-03-22 19:18:00,84.3,74.3,29.95,WSW,248,0.0,0.0,72,0.00,,---,0.08,VWS V13.01,2013-03-22 23:18:00,
2013-03-22 19:23:00,84.3,74.3,29.95,SSW,202,0.0,0.0,72,0.00,,---,0.08,VWS V13.01,2013-03-22 23:23:00,
2013-03-22 19:28:00,84.3,74.3,29.96,SSW,202,0.0,0.0,72,0.00,,---,0.08,VWS V13.01,2013-03-22 23:28:00,
2013-03-22 19:33:00,84.3,74.3,29.96,South,180,0.0,0.0,72,0.00,,---,0.08,VWS V13.01,2013-03-22 23:33:00,
2013-03-22 19:38:00,84.3,74.3,29.97,SSW,202,0.0,0.0,72,0.00,,---,0.08,VWS V13.01,2013-03-22 23:38:00,
2013-03-22 19:43:00,84.3,73.9,29.96,South,180,3.8,3.8,71,0.00,,---,0.08,VWS V13.01,2013-03-22 23:43:00,
2013-03-22 19:48:00,84.5,73.7,29.97,South,180,2.2,2.2,70,0.00,,---,0.08,VWS V13.01,2013-03-22 23:48:00,
2013-03-22 19:53:00,84.5,73.7,29.96,SSW,202,4.6,4.6,70,0.00,,---,0.08,VWS V13.01,2013-03-22 23:53:00,
2013-03-22 19:57:00,84.3,73.9,29.97,South,180,4.6,4.6,71,0.00,,---,0.08,VWS V13.01,2013-03-22 23:57:00,
2013-03-22 20:02:00,84.3,74.3,29.97,West,270,4.0,4.0,72,0.00,,---,0.08,VWS V13.01,2013-03-23 00:02:00,
2013-03-22 20:07:00,83.8,73.8,29.98,WSW,248,2.0,2.0,72,0.00,,---,0.08,VWS V13.01,2013-03-23 00:07:00,
2013-03-22 20:12:00,83.1,72.7,29.99,SSE,158,0.0,0.0,71,0.00,,---,0.08,VWS V13.01,2013-03-23 00:12:00,
2013-03-22 20:17:00,82.9,72.5,29.99,SSW,202,5.3,5.3,71,0.00,,---,0.08,VWS V13.01,2013-03-23 00:17:00,
2013-03-22 20:22:00,82.2,71.4,30.00,SW,225,0.0,0.0,70,0.00,,---,0.08,VWS V13.01,2013-03-23 00:22:00,
2013-03-22 20:27:00,82.2,71.9,30.00,West,270,0.0,0.0,71,0.00,,---,0.08,VWS V13.01,2013-03-23 00:27:00,
2013-03-22 20:33:00,81.3,71.0,30.01,NNW,338,4.6,4.6,71,0.00,,---,0.08,VWS V13.01,2013-03-23 00:33:00,
2013-03-22 20:38:00,80.4,70.1,30.01,North,0,3.5,3.5,71,0.00,,---,0.08,VWS V13.01,2013-03-23 00:38:00,
2013-03-22 20:43:00,79.7,69.9,30.01,West,270,2.2,2.2,72,0.00,,---,0.08,VWS V13.01,2013-03-23 00:43:00,
2013-03-22 20:48:00,79.5,70.1,30.01,WNW,292,0.0,0.0,73,0.00,,---,0.08,VWS V13.01,2013-03-23 00:48:00,
2013-03-22 20:52:00,79.5,70.5,30.01,WSW,248,1.5,1.5,74,0.00,,---,0.08,VWS V13.01,2013-03-23 00:52:00,
2013-03-22 20:57:00,79.7,71.1,30.01,West,270,1.3,1.3,75,0.00,,---,0.08,VWS V13.01,2013-03-23 00:57:00,
2013-03-22 21:02:00,79.7,71.1,30.01,North,0,0.0,0.0,75,0.00,,---,0.08,VWS V13.01,2013-03-23 01:02:00,
2013-03-22 21:07:00,79.7,71.5,30.01,WNW,292,0.0,0.0,76,0.00,,---,0.08,VWS V13.01,2013-03-23 01:07:00,
2013-03-22 21:12:00,79.8,71.2,30.01,SW,225,0.0,0.0,75,0.00,,---,0.08,VWS V13.01,2013-03-23 01:12:00,
2013-03-22 21:17:00,80.0,71.4,30.01,SSW,202,0.0,0.0,75,0.00,,---,0.08,VWS V13.01,2013-03-23 01:17:00,
2013-03-22 21:22:00,80.2,71.2,30.01,WNW,292,0.0,0.0,74,0.00,,---,0.08,VWS V13.01,2013-03-23 01:22:00,
2013-03-22 21:27:00,80.4,71.4,30.01,WNW,292,2.2,2.2,74,0.00,,---,0.08,VWS V13.01,2013-03-23 01:27:00,
2013-03-22 21:32:00,80.2,71.2,30.01,WNW,292,0.0,0.0,74,0.00,,---,0.08,VWS V13.01,2013-03-23 01:32:00,
2013-03-22 21:37:00,80.2,71.6,30.01,NNW,338,2.0,2.0,75,0.00,,---,0.08,VWS V13.01,2013-03-23 01:37:00,
2013-03-22 21:42:00,79.8,71.2,30.01,SW,225,0.0,0.0,75,0.00,,---,0.08,VWS V13.01,2013-03-23 01:42:00,
2013-03-22 21:47:00,79.8,71.2,30.01,NW,315,2.2,2.2,75,0.00,,---,0.08,VWS V13.01,2013-03-23 01:47:00,
2013-03-22 21:52:00,79.8,71.2,30.01,SSW,202,0.0,0.0,75,0.00,,---,0.08,VWS V13.01,2013-03-23 01:52:00,
2013-03-22 21:57:00,79.8,71.2,30.01,WSW,248,0.0,0.0,75,0.00,,---,0.08,VWS V13.01,2013-03-23 01:57:00,
2013-03-22 22:02:00,80.0,71.4,30.02,SSW,202,0.8,0.8,75,0.00,,---,0.08,VWS V13.01,2013-03-23 02:02:00,
2013-03-22 22:07:00,80.0,71.0,30.02,WNW,292,0.0,0.0,74,0.00,,---,0.08,VWS V13.01,2013-03-23 02:07:00,
2013-03-22 22:12:00,80.2,71.2,30.01,West,270,0.0,0.0,74,0.00,,---,0.08,VWS V13.01,2013-03-23 02:12:00,
2013-03-22 22:17:00,80.2,71.2,30.01,West,270,0.0,0.0,74,0.00,,---,0.08,VWS V13.01,2013-03-23 02:17:00,
2013-03-22 22:22:00,80.0,71.0,30.01,WNW,292,0.0,0.0,74,0.00,,---,0.08,VWS V13.01,2013-03-23 02:22:00,
2013-03-22 22:27:00,79.8,71.2,30.01,NNW,338,0.0,0.0,75,0.00,,---,0.08,VWS V13.01,2013-03-23 02:27:00,
2013-03-22 22:32:00,79.8,71.2,30.01,SW,225,0.0,0.0,75,0.00,,---,0.08,VWS V13.01,2013-03-23 02:32:00,
2013-03-22 22:37:00,79.8,71.2,30.01,South,180,0.0,0.0,75,0.00,,---,0.08,VWS V13.01,2013-03-23 02:37:00,
2013-03-22 22:42:00,80.2,71.6,30.01,WSW,248,0.0,0.0,75,0.00,,---,0.08,VWS V13.01,2013-03-23 02:42:00,
2013-03-22 22:47:00,80.0,71.4,30.00,South,180,2.9,2.9,75,0.00,,---,0.08,VWS V13.01,2013-03-23 02:47:00,
2013-03-22 22:52:00,79.8,71.2,30.01,SSW,202,0.0,0.0,75,0.00,,---,0.08,VWS V13.01,2013-03-23 02:52:00,
2013-03-22 22:57:00,79.8,71.6,30.00,SW,225,0.0,0.0,76,0.00,,---,0.08,VWS V13.01,2013-03-23 02:57:00,
2013-03-22 23:02:00,79.8,71.6,30.00,SSW,202,0.0,0.0,76,0.00,,---,0.08,VWS V13.01,2013-03-23 03:02:00,
2013-03-22 23:08:00,79.8,71.6,30.01,West,270,0.0,0.0,76,0.00,,---,0.08,VWS V13.01,2013-03-23 03:08:00,
2013-03-22 23:13:00,79.8,71.6,30.01,SSW,202,0.0,0.0,76,0.00,,---,0.08,VWS V13.01,2013-03-23 03:13:00,
2013-03-22 23:18:00,80.0,71.8,30.01,WNW,292,0.0,0.0,76,0.00,,---,0.08,VWS V13.01,2013-03-23 03:18:00,
2013-03-22 23:23:00,79.8,71.6,30.00,WNW,292,0.0,0.0,76,0.00,,---,0.08,VWS V13.01,2013-03-23 03:23:00,
2013-03-22 23:28:00,79.8,71.6,30.00,WSW,248,1.7,1.7,76,0.00,,---,0.08,VWS V13.01,2013-03-23 03:28:00,
2013-03-22 23:32:00,79.7,71.5,30.00,WNW,292,0.0,0.0,76,0.00,,---,0.08,VWS V13.01,2013-03-23 03:32:00,
2013-03-22 23:37:00,79.7,71.5,30.00,West,270,0.0,0.0,76,0.00,,---,0.08,VWS V13.01,2013-03-23 03:37:00,
2013-03-22 23:42:00,79.7,71.5,30.00,WNW,292,0.0,0.0,76,0.00,,---,0.08,VWS V13.01,2013-03-23 03:42:00,
2013-03-22 23:47:00,79.7,71.5,30.00,WNW,292,0.0,0.0,76,0.00,,---,0.08,VWS V13.01,2013-03-23 03:47:00,
2013-03-22 23:52:00,79.7,71.5,30.00,West,270,0.0,0.0,76,0.00,,---,0.08,VWS V13.01,2013-03-23 03:52:00,
2013-03-22 23:57:00,79.7,71.9,30.00,SSW,202,0.0,0.0,77,0.00,,---,0.08,VWS V13.01,2013-03-23 03:57:00,